sensor_id;sensor_type;location;lat;lon;timestamp;temperature;humidity
3923;DHT22;1976;51.694;6.256;2023-12-29T00:01:46;11.10;99.90
3923;DHT22;1976;51.694;6.256;2023-12-29T00:04:11;11.00;99.90
3923;DHT22;1976;51.694;6.256;2023-12-29T00:06:40;11.00;99.90
3923;DHT22;1976;51.694;6.256;2023-12-29T00:09:06;11.00;99.90
3923;DHT22;1976;51.694;6.256;2023-12-29T00:11:32;11.10;99.90
3923;DHT22;1976;51.694;6.256;2023-12-29T00:13:58;11.10;99.90
3923;DHT22;1976;51.694;6.256;2023-12-29T00:16:24;11.10;99.90
3923;DHT22;1976;51.694;6.256;2023-12-29T00:18:50;11.10;99.90
3923;DHT22;1976;51.694;6.256;2023-12-29T00:21:16;11.00;99.90
3923;DHT22;1976;51.694;6.256;2023-12-29T00:23:41;11.10;99.90
3923;DHT22;1976;51.694;6.256;2023-12-29T00:26:07;11.10;99.90
3923;DHT22;1976;51.694;6.256;2023-12-29T00:28:33;11.10;99.90
3923;DHT22;1976;51.694;6.256;2023-12-29T00:31:01;11.10;99.90
3923;DHT22;1976;51.694;6.256;2023-12-29T00:33:26;11.10;99.90
3923;DHT22;1976;51.694;6.256;2023-12-29T00:35:52;11.00;99.90
3923;DHT22;1976;51.694;6.256;2023-12-29T00:38:17;11.00;99.90
3923;DHT22;1976;51.694;6.256;2023-12-29T00:40:43;11.00;99.90
3923;DHT22;1976;51.694;6.256;2023-12-29T00:43:08;11.00;99.90
3923;DHT22;1976;51.694;6.256;2023-12-29T00:45:34;11.00;99.90
3923;DHT22;1976;51.694;6.256;2023-12-29T00:48:01;11.00;99.90
3923;DHT22;1976;51.694;6.256;2023-12-29T00:50:27;10.70;99.90
3923;DHT22;1976;51.694;6.256;2023-12-29T00:52:53;10.30;99.90
3923;DHT22;1976;51.694;6.256;2023-12-29T00:55:19;10.10;99.90
3923;DHT22;1976;51.694;6.256;2023-12-29T00:57:44;10.00;99.90
3923;DHT22;1976;51.694;6.256;2023-12-29T01:00:13;9.70;99.90
3923;DHT22;1976;51.694;6.256;2023-12-29T01:02:39;8.40;99.90
3923;DHT22;1976;51.694;6.256;2023-12-29T01:05:05;9.40;99.90
3923;DHT22;1976;51.694;6.256;2023-12-29T01:07:31;9.40;99.90
3923;DHT22;1976;51.694;6.256;2023-12-29T01:09:57;9.40;99.90
3923;DHT22;1976;51.694;6.256;2023-12-29T01:12:22;9.30;99.90
3923;DHT22;1976;51.694;6.256;2023-12-29T01:14:48;9.30;99.90
3923;DHT22;1976;51.694;6.256;2023-12-29T01:17:13;9.30;99.90
3923;DHT22;1976;51.694;6.256;2023-12-29T01:19:39;9.30;99.90
3923;DHT22;1976;51.694;6.256;2023-12-29T01:22:05;9.30;99.90
3923;DHT22;1976;51.694;6.256;2023-12-29T01:24:30;9.30;99.90
3923;DHT22;1976;51.694;6.256;2023-12-29T01:26:56;9.30;99.90
3923;DHT22;1976;51.694;6.256;2023-12-29T01:29:22;9.30;99.90
3923;DHT22;1976;51.694;6.256;2023-12-29T01:31:48;9.30;99.90
3923;DHT22;1976;51.694;6.256;2023-12-29T01:34:13;9.30;99.90
3923;DHT22;1976;51.694;6.256;2023-12-29T01:36:39;9.30;99.90
3923;DHT22;1976;51.694;6.256;2023-12-29T01:39:05;9.30;99.90
3923;DHT22;1976;51.694;6.256;2023-12-29T01:41:31;9.20;99.90
3923;DHT22;1976;51.694;6.256;2023-12-29T01:46:23;9.20;99.90
3923;DHT22;1976;51.694;6.256;2023-12-29T01:48:49;9.10;99.90
3923;DHT22;1976;51.694;6.256;2023-12-29T01:51:16;9.10;99.90
3923;DHT22;1976;51.694;6.256;2023-12-29T01:53:42;9.10;99.90
3923;DHT22;1976;51.694;6.256;2023-12-29T01:56:09;9.10;99.90
3923;DHT22;1976;51.694;6.256;2023-12-29T01:58:35;9.00;99.90
3923;DHT22;1976;51.694;6.256;2023-12-29T02:01:01;9.00;99.90
3923;DHT22;1976;51.694;6.256;2023-12-29T02:03:27;9.00;99.90
3923;DHT22;1976;51.694;6.256;2023-12-29T02:05:55;8.90;99.90
3923;DHT22;1976;51.694;6.256;2023-12-29T02:08:22;8.90;99.90
3923;DHT22;1976;51.694;6.256;2023-12-29T02:10:48;8.90;99.90
3923;DHT22;1976;51.694;6.256;2023-12-29T02:13:14;8.80;99.90
3923;DHT22;1976;51.694;6.256;2023-12-29T02:15:40;8.80;99.90
3923;DHT22;1976;51.694;6.256;2023-12-29T02:18:08;8.80;99.90
3923;DHT22;1976;51.694;6.256;2023-12-29T02:20:35;8.80;99.90
3923;DHT22;1976;51.694;6.256;2023-12-29T02:23:01;8.80;99.90
3923;DHT22;1976;51.694;6.256;2023-12-29T02:25:27;8.80;99.90
3923;DHT22;1976;51.694;6.256;2023-12-29T02:30:49;8.90;99.90
3923;DHT22;1976;51.694;6.256;2023-12-29T02:33:21;8.80;99.90
3923;DHT22;1976;51.694;6.256;2023-12-29T02:35:48;8.80;99.90
3923;DHT22;1976;51.694;6.256;2023-12-29T02:38:15;8.80;99.90
3923;DHT22;1976;51.694;6.256;2023-12-29T02:40:41;8.80;99.90
3923;DHT22;1976;51.694;6.256;2023-12-29T02:43:09;8.80;99.90
3923;DHT22;1976;51.694;6.256;2023-12-29T02:45:35;8.80;99.90
3923;DHT22;1976;51.694;6.256;2023-12-29T02:48:00;8.80;99.90
3923;DHT22;1976;51.694;6.256;2023-12-29T02:50:26;8.90;99.90
3923;DHT22;1976;51.694;6.256;2023-12-29T02:52:52;8.90;99.90
3923;DHT22;1976;51.694;6.256;2023-12-29T02:55:17;9.00;99.90
3923;DHT22;1976;51.694;6.256;2023-12-29T02:57:43;8.90;99.90
3923;DHT22;1976;51.694;6.256;2023-12-29T03:00:09;9.00;99.90
3923;DHT22;1976;51.694;6.256;2023-12-29T03:02:34;9.00;99.90
3923;DHT22;1976;51.694;6.256;2023-12-29T03:05:00;9.10;99.90
3923;DHT22;1976;51.694;6.256;2023-12-29T03:07:26;9.00;99.90
3923;DHT22;1976;51.694;6.256;2023-12-29T03:09:51;9.10;99.90
3923;DHT22;1976;51.694;6.256;2023-12-29T03:12:17;9.10;99.90
3923;DHT22;1976;51.694;6.256;2023-12-29T03:14:44;9.10;99.90
3923;DHT22;1976;51.694;6.256;2023-12-29T03:17:10;9.20;99.90
3923;DHT22;1976;51.694;6.256;2023-12-29T03:19:35;9.20;99.90
3923;DHT22;1976;51.694;6.256;2023-12-29T03:22:01;9.20;99.90
3923;DHT22;1976;51.694;6.256;2023-12-29T03:24:29;9.30;99.90
3923;DHT22;1976;51.694;6.256;2023-12-29T03:26:54;9.50;99.90
3923;DHT22;1976;51.694;6.256;2023-12-29T03:29:20;9.50;99.90
3923;DHT22;1976;51.694;6.256;2023-12-29T03:31:45;9.60;99.90
3923;DHT22;1976;51.694;6.256;2023-12-29T03:34:11;9.60;99.90
3923;DHT22;1976;51.694;6.256;2023-12-29T03:36:37;9.60;99.90
3923;DHT22;1976;51.694;6.256;2023-12-29T03:39:02;9.70;99.90
3923;DHT22;1976;51.694;6.256;2023-12-29T03:41:28;9.70;99.90
3923;DHT22;1976;51.694;6.256;2023-12-29T03:43:54;9.70;99.90
3923;DHT22;1976;51.694;6.256;2023-12-29T03:46:21;9.70;99.90
3923;DHT22;1976;51.694;6.256;2023-12-29T03:48:47;9.70;99.90
3923;DHT22;1976;51.694;6.256;2023-12-29T03:51:14;9.80;99.90
3923;DHT22;1976;51.694;6.256;2023-12-29T03:53:40;9.80;99.90
3923;DHT22;1976;51.694;6.256;2023-12-29T03:56:13;9.80;99.90
3923;DHT22;1976;51.694;6.256;2023-12-29T03:58:39;9.80;99.90
3923;DHT22;1976;51.694;6.256;2023-12-29T04:01:12;9.90;99.90
3923;DHT22;1976;51.694;6.256;2023-12-29T04:03:38;9.90;99.90
3923;DHT22;1976;51.694;6.256;2023-12-29T04:06:04;9.90;99.90
3923;DHT22;1976;51.694;6.256;2023-12-29T04:08:30;9.90;99.90
3923;DHT22;1976;51.694;6.256;2023-12-29T04:10:56;9.90;99.90
3923;DHT22;1976;51.694;6.256;2023-12-29T04:13:21;10.00;99.90
3923;DHT22;1976;51.694;6.256;2023-12-29T04:15:47;10.00;99.90
3923;DHT22;1976;51.694;6.256;2023-12-29T04:18:13;10.00;99.90
3923;DHT22;1976;51.694;6.256;2023-12-29T04:20:38;10.10;99.90
3923;DHT22;1976;51.694;6.256;2023-12-29T04:23:06;10.20;99.90
3923;DHT22;1976;51.694;6.256;2023-12-29T04:25:32;10.20;99.90
3923;DHT22;1976;51.694;6.256;2023-12-29T04:27:58;10.10;99.90
3923;DHT22;1976;51.694;6.256;2023-12-29T04:30:23;10.20;99.90
3923;DHT22;1976;51.694;6.256;2023-12-29T04:32:50;10.20;99.90
3923;DHT22;1976;51.694;6.256;2023-12-29T04:35:15;10.20;99.90
3923;DHT22;1976;51.694;6.256;2023-12-29T04:37:44;10.10;99.90
3923;DHT22;1976;51.694;6.256;2023-12-29T04:40:11;10.10;99.90
3923;DHT22;1976;51.694;6.256;2023-12-29T04:42:37;10.20;99.90
3923;DHT22;1976;51.694;6.256;2023-12-29T04:45:03;10.10;99.90
3923;DHT22;1976;51.694;6.256;2023-12-29T04:47:29;10.10;99.90
3923;DHT22;1976;51.694;6.256;2023-12-29T04:49:55;10.20;99.90
3923;DHT22;1976;51.694;6.256;2023-12-29T04:52:20;10.20;99.90
3923;DHT22;1976;51.694;6.256;2023-12-29T04:54:46;10.10;99.90
3923;DHT22;1976;51.694;6.256;2023-12-29T04:57:11;10.20;99.90
3923;DHT22;1976;51.694;6.256;2023-12-29T04:59:37;10.20;99.90
3923;DHT22;1976;51.694;6.256;2023-12-29T05:02:03;10.20;99.90
3923;DHT22;1976;51.694;6.256;2023-12-29T05:04:28;10.20;99.90
3923;DHT22;1976;51.694;6.256;2023-12-29T05:06:54;10.20;99.90
3923;DHT22;1976;51.694;6.256;2023-12-29T05:09:19;10.40;99.90
3923;DHT22;1976;51.694;6.256;2023-12-29T05:11:45;10.30;99.90
3923;DHT22;1976;51.694;6.256;2023-12-29T05:14:11;10.30;99.90
3923;DHT22;1976;51.694;6.256;2023-12-29T05:16:37;10.40;99.90
3923;DHT22;1976;51.694;6.256;2023-12-29T05:19:02;10.50;99.90
3923;DHT22;1976;51.694;6.256;2023-12-29T05:21:28;10.50;99.90
3923;DHT22;1976;51.694;6.256;2023-12-29T05:23:53;10.50;99.90
3923;DHT22;1976;51.694;6.256;2023-12-29T05:26:19;10.60;99.90
3923;DHT22;1976;51.694;6.256;2023-12-29T05:28:44;10.60;99.90
3923;DHT22;1976;51.694;6.256;2023-12-29T05:31:10;10.60;99.90
3923;DHT22;1976;51.694;6.256;2023-12-29T05:33:36;10.60;99.90
3923;DHT22;1976;51.694;6.256;2023-12-29T05:36:08;10.60;99.90
3923;DHT22;1976;51.694;6.256;2023-12-29T05:38:34;10.70;99.90
3923;DHT22;1976;51.694;6.256;2023-12-29T05:41:01;10.70;99.90
3923;DHT22;1976;51.694;6.256;2023-12-29T05:43:28;10.70;99.90
3923;DHT22;1976;51.694;6.256;2023-12-29T05:45:54;10.70;99.90
3923;DHT22;1976;51.694;6.256;2023-12-29T05:48:20;10.70;99.90
3923;DHT22;1976;51.694;6.256;2023-12-29T05:50:45;10.70;99.90
3923;DHT22;1976;51.694;6.256;2023-12-29T05:53:11;10.70;99.90
3923;DHT22;1976;51.694;6.256;2023-12-29T05:55:36;10.70;99.90
3923;DHT22;1976;51.694;6.256;2023-12-29T05:58:02;10.70;99.90
3923;DHT22;1976;51.694;6.256;2023-12-29T06:00:27;10.60;99.90
3923;DHT22;1976;51.694;6.256;2023-12-29T06:02:53;10.60;99.90
3923;DHT22;1976;51.694;6.256;2023-12-29T06:05:18;10.60;99.90
3923;DHT22;1976;51.694;6.256;2023-12-29T06:07:44;10.70;99.90
3923;DHT22;1976;51.694;6.256;2023-12-29T06:10:11;10.60;99.90
3923;DHT22;1976;51.694;6.256;2023-12-29T06:12:36;10.70;99.90
3923;DHT22;1976;51.694;6.256;2023-12-29T06:15:03;10.70;99.90
3923;DHT22;1976;51.694;6.256;2023-12-29T06:17:28;10.60;99.90
3923;DHT22;1976;51.694;6.256;2023-12-29T06:19:54;10.60;99.90
3923;DHT22;1976;51.694;6.256;2023-12-29T06:22:19;10.60;99.90
3923;DHT22;1976;51.694;6.256;2023-12-29T06:24:45;10.70;99.90
3923;DHT22;1976;51.694;6.256;2023-12-29T06:27:11;10.60;99.90
3923;DHT22;1976;51.694;6.256;2023-12-29T06:29:37;10.60;99.90
3923;DHT22;1976;51.694;6.256;2023-12-29T06:32:03;10.60;99.90
3923;DHT22;1976;51.694;6.256;2023-12-29T06:34:29;10.60;99.90
3923;DHT22;1976;51.694;6.256;2023-12-29T06:36:55;10.60;99.90
3923;DHT22;1976;51.694;6.256;2023-12-29T06:39:20;10.60;99.90
3923;DHT22;1976;51.694;6.256;2023-12-29T06:41:46;10.60;99.90
3923;DHT22;1976;51.694;6.256;2023-12-29T06:44:11;10.60;99.90
3923;DHT22;1976;51.694;6.256;2023-12-29T06:46:37;10.60;99.90
3923;DHT22;1976;51.694;6.256;2023-12-29T06:49:06;10.60;99.90
3923;DHT22;1976;51.694;6.256;2023-12-29T06:51:31;10.60;99.90
3923;DHT22;1976;51.694;6.256;2023-12-29T06:53:57;10.60;99.90
3923;DHT22;1976;51.694;6.256;2023-12-29T06:56:23;10.30;99.90
3923;DHT22;1976;51.694;6.256;2023-12-29T06:58:49;9.80;99.90
3923;DHT22;1976;51.694;6.256;2023-12-29T07:01:14;9.80;99.90
3923;DHT22;1976;51.694;6.256;2023-12-29T07:03:41;9.60;99.90
3923;DHT22;1976;51.694;6.256;2023-12-29T07:06:07;9.60;99.90
3923;DHT22;1976;51.694;6.256;2023-12-29T07:08:32;9.40;99.90
3923;DHT22;1976;51.694;6.256;2023-12-29T07:10:58;9.40;99.90
3923;DHT22;1976;51.694;6.256;2023-12-29T07:13:23;9.30;99.90
3923;DHT22;1976;51.694;6.256;2023-12-29T07:15:49;9.30;99.90
3923;DHT22;1976;51.694;6.256;2023-12-29T07:18:15;9.20;99.90
3923;DHT22;1976;51.694;6.256;2023-12-29T07:20:41;9.20;99.90
3923;DHT22;1976;51.694;6.256;2023-12-29T07:23:07;9.20;99.90
3923;DHT22;1976;51.694;6.256;2023-12-29T07:25:32;9.20;99.90
3923;DHT22;1976;51.694;6.256;2023-12-29T07:27:58;9.20;99.90
3923;DHT22;1976;51.694;6.256;2023-12-29T07:30:23;9.20;99.90
3923;DHT22;1976;51.694;6.256;2023-12-29T07:32:49;9.20;99.90
3923;DHT22;1976;51.694;6.256;2023-12-29T07:35:15;9.20;99.90
3923;DHT22;1976;51.694;6.256;2023-12-29T07:37:45;9.30;99.90
3923;DHT22;1976;51.694;6.256;2023-12-29T07:40:12;9.30;99.90
3923;DHT22;1976;51.694;6.256;2023-12-29T07:42:39;9.30;99.90
3923;DHT22;1976;51.694;6.256;2023-12-29T07:45:05;9.30;99.90
3923;DHT22;1976;51.694;6.256;2023-12-29T07:47:31;9.30;99.90
3923;DHT22;1976;51.694;6.256;2023-12-29T07:49:57;9.40;99.90
3923;DHT22;1976;51.694;6.256;2023-12-29T07:52:23;9.40;99.90
3923;DHT22;1976;51.694;6.256;2023-12-29T07:54:48;9.50;99.90
3923;DHT22;1976;51.694;6.256;2023-12-29T07:57:14;9.50;99.90
3923;DHT22;1976;51.694;6.256;2023-12-29T07:59:40;9.60;99.90
3923;DHT22;1976;51.694;6.256;2023-12-29T08:02:06;9.50;99.90
3923;DHT22;1976;51.694;6.256;2023-12-29T08:04:32;9.50;99.90
3923;DHT22;1976;51.694;6.256;2023-12-29T08:06:58;9.50;99.90
3923;DHT22;1976;51.694;6.256;2023-12-29T08:09:25;9.70;99.90
3923;DHT22;1976;51.694;6.256;2023-12-29T08:11:50;9.80;99.90
3923;DHT22;1976;51.694;6.256;2023-12-29T08:14:16;9.70;99.90
3923;DHT22;1976;51.694;6.256;2023-12-29T08:16:41;9.70;99.90
3923;DHT22;1976;51.694;6.256;2023-12-29T08:21:33;9.80;99.90
3923;DHT22;1976;51.694;6.256;2023-12-29T08:23:59;9.80;99.90
3923;DHT22;1976;51.694;6.256;2023-12-29T08:28:51;9.90;99.90
3923;DHT22;1976;51.694;6.256;2023-12-29T08:31:18;10.00;99.90
3923;DHT22;1976;51.694;6.256;2023-12-29T08:41:04;10.10;99.90
3923;DHT22;1976;51.694;6.256;2023-12-29T08:43:29;10.00;99.90
3923;DHT22;1976;51.694;6.256;2023-12-29T08:45:55;10.10;99.90
3923;DHT22;1976;51.694;6.256;2023-12-29T08:48:21;10.10;99.90
3923;DHT22;1976;51.694;6.256;2023-12-29T08:50:46;10.00;99.90
3923;DHT22;1976;51.694;6.256;2023-12-29T08:53:12;10.10;99.90
3923;DHT22;1976;51.694;6.256;2023-12-29T08:55:38;10.10;99.90
3923;DHT22;1976;51.694;6.256;2023-12-29T08:58:03;10.10;99.90
3923;DHT22;1976;51.694;6.256;2023-12-29T09:00:29;10.20;99.90
3923;DHT22;1976;51.694;6.256;2023-12-29T09:05:22;10.20;99.90
3923;DHT22;1976;51.694;6.256;2023-12-29T09:07:47;10.20;99.90
3923;DHT22;1976;51.694;6.256;2023-12-29T09:10:13;10.30;99.90
3923;DHT22;1976;51.694;6.256;2023-12-29T09:12:40;10.30;99.90
3923;DHT22;1976;51.694;6.256;2023-12-29T09:15:06;10.40;99.90
3923;DHT22;1976;51.694;6.256;2023-12-29T09:17:32;10.40;99.90
3923;DHT22;1976;51.694;6.256;2023-12-29T09:19:57;10.40;99.90
3923;DHT22;1976;51.694;6.256;2023-12-29T09:22:23;10.50;99.90
3923;DHT22;1976;51.694;6.256;2023-12-29T09:24:48;10.50;99.90
3923;DHT22;1976;51.694;6.256;2023-12-29T09:27:14;10.50;99.90
3923;DHT22;1976;51.694;6.256;2023-12-29T09:29:40;10.50;99.90
3923;DHT22;1976;51.694;6.256;2023-12-29T09:32:06;10.40;99.90
3923;DHT22;1976;51.694;6.256;2023-12-29T09:34:31;10.40;99.90
3923;DHT22;1976;51.694;6.256;2023-12-29T09:36:57;10.50;99.90
3923;DHT22;1976;51.694;6.256;2023-12-29T09:39:23;10.40;99.90
3923;DHT22;1976;51.694;6.256;2023-12-29T09:41:52;10.40;99.90
3923;DHT22;1976;51.694;6.256;2023-12-29T09:44:20;10.40;99.90
3923;DHT22;1976;51.694;6.256;2023-12-29T09:46:50;10.30;99.90
3923;DHT22;1976;51.694;6.256;2023-12-29T09:49:19;10.30;99.90
3923;DHT22;1976;51.694;6.256;2023-12-29T09:51:45;10.40;99.90
3923;DHT22;1976;51.694;6.256;2023-12-29T09:54:12;10.30;99.90
3923;DHT22;1976;51.694;6.256;2023-12-29T09:56:39;10.30;99.90
3923;DHT22;1976;51.694;6.256;2023-12-29T09:59:06;9.90;99.90
3923;DHT22;1976;51.694;6.256;2023-12-29T10:01:32;9.90;99.90
3923;DHT22;1976;51.694;6.256;2023-12-29T10:03:58;9.90;99.90
3923;DHT22;1976;51.694;6.256;2023-12-29T10:06:25;9.80;99.90
3923;DHT22;1976;51.694;6.256;2023-12-29T10:08:51;9.80;99.90
3923;DHT22;1976;51.694;6.256;2023-12-29T10:11:21;9.80;99.90
3923;DHT22;1976;51.694;6.256;2023-12-29T10:13:50;9.80;99.90
3923;DHT22;1976;51.694;6.256;2023-12-29T10:16:28;9.80;99.90
3923;DHT22;1976;51.694;6.256;2023-12-29T10:19:37;9.80;99.90
3923;DHT22;1976;51.694;6.256;2023-12-29T10:22:15;9.70;99.90
3923;DHT22;1976;51.694;6.256;2023-12-29T10:24:44;9.70;99.90
3923;DHT22;1976;51.694;6.256;2023-12-29T10:27:12;9.80;99.90
3923;DHT22;1976;51.694;6.256;2023-12-29T10:29:38;9.90;99.90
3923;DHT22;1976;51.694;6.256;2023-12-29T10:34:30;10.10;99.90
3923;DHT22;1976;51.694;6.256;2023-12-29T10:36:57;10.10;99.90
3923;DHT22;1976;51.694;6.256;2023-12-29T10:39:23;10.20;99.90
3923;DHT22;1976;51.694;6.256;2023-12-29T10:41:50;10.30;99.90
3923;DHT22;1976;51.694;6.256;2023-12-29T10:44:16;10.40;99.90
3923;DHT22;1976;51.694;6.256;2023-12-29T10:46:42;10.50;99.90
3923;DHT22;1976;51.694;6.256;2023-12-29T10:49:12;10.50;99.90
3923;DHT22;1976;51.694;6.256;2023-12-29T10:51:39;10.50;99.90
3923;DHT22;1976;51.694;6.256;2023-12-29T10:54:05;10.60;99.90
3923;DHT22;1976;51.694;6.256;2023-12-29T10:56:34;10.70;99.90
3923;DHT22;1976;51.694;6.256;2023-12-29T10:59:01;10.70;99.90
3923;DHT22;1976;51.694;6.256;2023-12-29T11:01:29;10.70;99.90
3923;DHT22;1976;51.694;6.256;2023-12-29T11:04:04;10.70;99.90
3923;DHT22;1976;51.694;6.256;2023-12-29T11:06:41;10.70;99.90
3923;DHT22;1976;51.694;6.256;2023-12-29T11:09:10;10.70;99.90
3923;DHT22;1976;51.694;6.256;2023-12-29T11:11:36;10.70;99.90
3923;DHT22;1976;51.694;6.256;2023-12-29T11:14:02;10.70;99.90
3923;DHT22;1976;51.694;6.256;2023-12-29T11:16:30;10.70;99.90
3923;DHT22;1976;51.694;6.256;2023-12-29T11:18:58;10.80;99.90
3923;DHT22;1976;51.694;6.256;2023-12-29T11:21:26;10.70;99.90
3923;DHT22;1976;51.694;6.256;2023-12-29T11:23:52;10.70;99.90
3923;DHT22;1976;51.694;6.256;2023-12-29T11:26:18;10.80;99.90
3923;DHT22;1976;51.694;6.256;2023-12-29T11:28:46;10.80;99.90
3923;DHT22;1976;51.694;6.256;2023-12-29T11:31:17;10.90;99.90
3923;DHT22;1976;51.694;6.256;2023-12-29T11:33:50;11.00;99.90
3923;DHT22;1976;51.694;6.256;2023-12-29T11:36:20;11.10;99.90
3923;DHT22;1976;51.694;6.256;2023-12-29T11:41:25;11.30;99.90
3923;DHT22;1976;51.694;6.256;2023-12-29T11:43:59;11.30;99.90
3923;DHT22;1976;51.694;6.256;2023-12-29T11:46:42;11.40;99.90
3923;DHT22;1976;51.694;6.256;2023-12-29T11:49:09;11.40;99.90
3923;DHT22;1976;51.694;6.256;2023-12-29T11:51:35;11.50;99.90
3923;DHT22;1976;51.694;6.256;2023-12-29T11:54:04;11.60;99.90
3923;DHT22;1976;51.694;6.256;2023-12-29T11:56:33;11.70;99.90
3923;DHT22;1976;51.694;6.256;2023-12-29T12:01:47;11.70;99.90
3923;DHT22;1976;51.694;6.256;2023-12-29T12:04:45;11.70;99.90
3923;DHT22;1976;51.694;6.256;2023-12-29T12:07:17;11.50;99.90
3923;DHT22;1976;51.694;6.256;2023-12-29T12:12:49;11.30;99.90
3923;DHT22;1976;51.694;6.256;2023-12-29T12:18:07;11.30;99.90
3923;DHT22;1976;51.694;6.256;2023-12-29T12:20:36;11.30;99.90
3923;DHT22;1976;51.694;6.256;2023-12-29T12:23:17;11.30;99.90
3923;DHT22;1976;51.694;6.256;2023-12-29T12:25:44;11.20;99.90
3923;DHT22;1976;51.694;6.256;2023-12-29T12:28:13;11.30;99.90
3923;DHT22;1976;51.694;6.256;2023-12-29T12:30:39;11.20;99.90
3923;DHT22;1976;51.694;6.256;2023-12-29T12:33:05;11.20;99.90
3923;DHT22;1976;51.694;6.256;2023-12-29T12:35:31;11.10;99.90
3923;DHT22;1976;51.694;6.256;2023-12-29T12:38:16;11.00;99.90
3923;DHT22;1976;51.694;6.256;2023-12-29T12:40:51;10.90;99.90
3923;DHT22;1976;51.694;6.256;2023-12-29T12:43:17;10.90;99.90
3923;DHT22;1976;51.694;6.256;2023-12-29T12:48:27;10.90;99.90
3923;DHT22;1976;51.694;6.256;2023-12-29T12:50:54;10.80;99.90
3923;DHT22;1976;51.694;6.256;2023-12-29T12:53:22;10.90;99.90
3923;DHT22;1976;51.694;6.256;2023-12-29T12:55:49;10.90;99.90
3923;DHT22;1976;51.694;6.256;2023-12-29T12:58:18;10.90;99.90
3923;DHT22;1976;51.694;6.256;2023-12-29T13:00:46;10.90;99.90
3923;DHT22;1976;51.694;6.256;2023-12-29T13:03:12;10.80;99.90
3923;DHT22;1976;51.694;6.256;2023-12-29T13:05:38;10.80;99.90
3923;DHT22;1976;51.694;6.256;2023-12-29T13:08:05;10.80;99.90
3923;DHT22;1976;51.694;6.256;2023-12-29T13:10:31;10.80;99.90
3923;DHT22;1976;51.694;6.256;2023-12-29T13:12:57;10.80;99.90
3923;DHT22;1976;51.694;6.256;2023-12-29T13:15:22;10.80;99.90
3923;DHT22;1976;51.694;6.256;2023-12-29T13:17:52;10.80;99.90
3923;DHT22;1976;51.694;6.256;2023-12-29T13:20:18;10.80;99.90
3923;DHT22;1976;51.694;6.256;2023-12-29T13:22:44;10.70;99.90
3923;DHT22;1976;51.694;6.256;2023-12-29T13:25:11;10.70;99.90
3923;DHT22;1976;51.694;6.256;2023-12-29T13:27:39;10.60;99.90
3923;DHT22;1976;51.694;6.256;2023-12-29T13:30:05;10.60;99.90
3923;DHT22;1976;51.694;6.256;2023-12-29T13:32:32;10.50;99.90
3923;DHT22;1976;51.694;6.256;2023-12-29T13:35:16;10.30;99.90
3923;DHT22;1976;51.694;6.256;2023-12-29T13:37:59;10.20;99.90
3923;DHT22;1976;51.694;6.256;2023-12-29T13:43:02;10.10;99.90
3923;DHT22;1976;51.694;6.256;2023-12-29T13:45:30;10.00;99.90
3923;DHT22;1976;51.694;6.256;2023-12-29T13:47:56;10.00;99.90
3923;DHT22;1976;51.694;6.256;2023-12-29T13:50:22;10.00;99.90
3923;DHT22;1976;51.694;6.256;2023-12-29T13:52:49;10.00;99.90
3923;DHT22;1976;51.694;6.256;2023-12-29T13:55:21;10.00;99.90
3923;DHT22;1976;51.694;6.256;2023-12-29T13:57:48;9.90;99.90
3923;DHT22;1976;51.694;6.256;2023-12-29T14:00:26;9.90;99.90
3923;DHT22;1976;51.694;6.256;2023-12-29T14:08:25;9.80;99.90
3923;DHT22;1976;51.694;6.256;2023-12-29T14:10:52;9.70;99.90
3923;DHT22;1976;51.694;6.256;2023-12-29T14:13:19;9.70;99.90
3923;DHT22;1976;51.694;6.256;2023-12-29T14:15:46;9.70;99.90
3923;DHT22;1976;51.694;6.256;2023-12-29T14:21:00;9.70;99.90
3923;DHT22;1976;51.694;6.256;2023-12-29T14:23:26;9.80;99.90
3923;DHT22;1976;51.694;6.256;2023-12-29T14:25:51;9.80;99.90
3923;DHT22;1976;51.694;6.256;2023-12-29T14:28:18;9.90;99.90
3923;DHT22;1976;51.694;6.256;2023-12-29T14:30:44;9.80;99.90
3923;DHT22;1976;51.694;6.256;2023-12-29T14:33:10;9.80;99.90
3923;DHT22;1976;51.694;6.256;2023-12-29T14:35:36;9.70;99.90
3923;DHT22;1976;51.694;6.256;2023-12-29T14:38:02;9.70;99.90
3923;DHT22;1976;51.694;6.256;2023-12-29T14:42:53;9.70;99.90
3923;DHT22;1976;51.694;6.256;2023-12-29T14:45:19;9.60;99.90
3923;DHT22;1976;51.694;6.256;2023-12-29T14:47:45;9.60;99.90
3923;DHT22;1976;51.694;6.256;2023-12-29T14:50:11;9.70;99.90
3923;DHT22;1976;51.694;6.256;2023-12-29T14:52:37;9.70;99.90
3923;DHT22;1976;51.694;6.256;2023-12-29T14:55:03;9.70;99.90
3923;DHT22;1976;51.694;6.256;2023-12-29T14:57:28;9.80;99.90
3923;DHT22;1976;51.694;6.256;2023-12-29T14:59:54;9.80;99.90
3923;DHT22;1976;51.694;6.256;2023-12-29T15:02:20;9.90;99.90
3923;DHT22;1976;51.694;6.256;2023-12-29T15:04:45;10.00;99.90
3923;DHT22;1976;51.694;6.256;2023-12-29T15:07:11;10.10;99.90
3923;DHT22;1976;51.694;6.256;2023-12-29T15:09:37;10.00;99.90
3923;DHT22;1976;51.694;6.256;2023-12-29T15:12:03;10.00;99.90
3923;DHT22;1976;51.694;6.256;2023-12-29T15:14:30;10.00;99.90
3923;DHT22;1976;51.694;6.256;2023-12-29T15:16:56;10.00;99.90
3923;DHT22;1976;51.694;6.256;2023-12-29T15:26:39;10.10;99.90
3923;DHT22;1976;51.694;6.256;2023-12-29T15:29:05;10.00;99.90
3923;DHT22;1976;51.694;6.256;2023-12-29T15:33:58;10.10;99.90
3923;DHT22;1976;51.694;6.256;2023-12-29T15:36:23;10.10;99.90
3923;DHT22;1976;51.694;6.256;2023-12-29T15:38:50;10.10;99.90
3923;DHT22;1976;51.694;6.256;2023-12-29T15:41:15;10.20;99.90
3923;DHT22;1976;51.694;6.256;2023-12-29T15:43:41;10.20;99.90
3923;DHT22;1976;51.694;6.256;2023-12-29T15:46:16;10.20;99.90
3923;DHT22;1976;51.694;6.256;2023-12-29T15:48:43;10.20;99.90
3923;DHT22;1976;51.694;6.256;2023-12-29T15:51:09;10.00;99.90
3923;DHT22;1976;51.694;6.256;2023-12-29T15:53:35;10.00;99.90
3923;DHT22;1976;51.694;6.256;2023-12-29T15:56:01;9.80;99.90
3923;DHT22;1976;51.694;6.256;2023-12-29T15:58:30;9.70;99.90
3923;DHT22;1976;51.694;6.256;2023-12-29T16:00:56;9.60;99.90
3923;DHT22;1976;51.694;6.256;2023-12-29T16:03:22;9.50;99.90
3923;DHT22;1976;51.694;6.256;2023-12-29T16:05:47;9.50;99.90
3923;DHT22;1976;51.694;6.256;2023-12-29T16:08:13;9.40;99.90
3923;DHT22;1976;51.694;6.256;2023-12-29T16:10:38;9.30;99.90
3923;DHT22;1976;51.694;6.256;2023-12-29T16:13:04;9.20;99.90
3923;DHT22;1976;51.694;6.256;2023-12-29T16:15:29;9.20;99.90
3923;DHT22;1976;51.694;6.256;2023-12-29T16:20:21;9.20;99.90
3923;DHT22;1976;51.694;6.256;2023-12-29T16:22:47;9.10;99.90
3923;DHT22;1976;51.694;6.256;2023-12-29T16:25:13;9.10;99.90
3923;DHT22;1976;51.694;6.256;2023-12-29T16:27:42;9.10;99.90
3923;DHT22;1976;51.694;6.256;2023-12-29T16:30:09;9.20;99.90
3923;DHT22;1976;51.694;6.256;2023-12-29T16:35:00;9.20;99.90
3923;DHT22;1976;51.694;6.256;2023-12-29T16:37:26;9.10;99.90
3923;DHT22;1976;51.694;6.256;2023-12-29T16:39:53;9.20;99.90
3923;DHT22;1976;51.694;6.256;2023-12-29T16:42:19;9.10;99.90
3923;DHT22;1976;51.694;6.256;2023-12-29T16:44:45;9.20;99.90
3923;DHT22;1976;51.694;6.256;2023-12-29T16:47:12;9.30;99.90
3923;DHT22;1976;51.694;6.256;2023-12-29T16:49:38;9.30;99.90
3923;DHT22;1976;51.694;6.256;2023-12-29T16:52:05;9.30;99.90
3923;DHT22;1976;51.694;6.256;2023-12-29T16:54:31;9.30;99.90
3923;DHT22;1976;51.694;6.256;2023-12-29T16:57:07;9.40;99.90
3923;DHT22;1976;51.694;6.256;2023-12-29T16:59:33;9.40;99.90
3923;DHT22;1976;51.694;6.256;2023-12-29T17:01:58;9.50;99.90
3923;DHT22;1976;51.694;6.256;2023-12-29T17:04:25;9.40;99.90
3923;DHT22;1976;51.694;6.256;2023-12-29T17:06:51;9.50;99.90
3923;DHT22;1976;51.694;6.256;2023-12-29T17:09:17;9.60;99.90
3923;DHT22;1976;51.694;6.256;2023-12-29T17:11:43;9.60;99.90